createdAt,value
2019-03-12T00:01:34.377Z,17.85
2019-03-12T00:14:34.777Z,20.55
2019-03-12T00:17:01.482Z,16.20
2019-03-12T00:19:28.144Z,27.02
2019-03-12T00:21:54.843Z,20.17
2019-03-12T00:24:22.056Z,24.15
2019-03-12T00:26:48.852Z,22.87
2019-03-12T00:29:15.570Z,24.25
2019-03-12T00:31:42.275Z,19.70
2019-03-12T00:34:09.055Z,27.37
2019-03-12T00:36:35.757Z,16.75
2019-03-12T00:39:03.650Z,25.48
2019-03-12T00:41:30.365Z,21.10
2019-03-12T00:43:57.222Z,20.00
2019-03-12T00:46:26.944Z,14.05
2019-03-12T00:48:52.374Z,21.07
2019-03-12T00:51:19.062Z,14.75
2019-03-12T00:53:45.742Z,12.75
2019-03-12T00:56:12.437Z,14.80
2019-03-12T00:58:39.123Z,14.85
2019-03-12T01:01:05.920Z,11.15
2019-03-12T01:03:32.691Z,17.45
2019-03-12T01:05:59.356Z,14.95
2019-03-12T01:08:26.159Z,15.25
2019-03-12T01:10:52.842Z,16.37
2019-03-12T01:13:19.631Z,13.48
2019-03-12T01:15:46.417Z,13.48
2019-03-12T01:18:13.939Z,19.40
2019-03-12T01:20:42.890Z,16.27
2019-03-12T01:23:09.698Z,20.00
2019-03-12T01:25:36.473Z,13.32
2019-03-12T01:28:03.291Z,13.83
2019-03-12T01:30:29.991Z,15.23
2019-03-12T01:32:56.787Z,15.78
2019-03-12T01:35:23.495Z,16.25
2019-03-12T01:37:50.090Z,14.55
2019-03-12T01:40:16.796Z,15.95
2019-03-12T01:42:43.507Z,14.30
2019-03-12T01:45:11.797Z,14.73
2019-03-12T01:47:38.589Z,10.88
2019-03-12T01:50:05.545Z,22.70
2019-03-12T01:52:32.141Z,14.35
2019-03-12T01:54:58.812Z,17.60
2019-03-12T01:57:25.505Z,16.75
2019-03-12T01:59:52.276Z,16.45
2019-03-12T02:02:18.975Z,21.40
2019-03-12T02:04:45.646Z,24.90
2019-03-12T02:07:12.345Z,16.52
2019-03-12T02:09:39.024Z,20.55
2019-03-12T02:12:05.724Z,19.55
2019-03-12T02:14:32.416Z,23.55
2019-03-12T02:16:59.049Z,20.50
2019-03-12T02:19:25.815Z,18.05
2019-03-12T02:21:52.591Z,21.90
2019-03-12T02:24:19.312Z,16.30
2019-03-12T02:26:46.093Z,22.55
2019-03-12T02:29:12.894Z,18.17
2019-03-12T02:31:39.571Z,17.62
2019-03-12T02:34:06.381Z,22.17
2019-03-12T02:36:33.166Z,17.17
2019-03-12T02:38:59.907Z,25.82
2019-03-12T02:41:26.600Z,28.65
2019-03-12T02:43:53.193Z,20.55
2019-03-12T02:46:19.959Z,17.75
2019-03-12T02:48:46.759Z,19.07
2019-03-12T02:51:13.520Z,19.20
2019-03-12T02:53:40.215Z,25.32
2019-03-12T02:56:06.788Z,16.80
2019-03-12T02:58:33.493Z,22.95
2019-03-12T03:01:00.178Z,22.17
2019-03-12T03:03:26.874Z,18.90
2019-03-12T03:06:02.792Z,18.17
2019-03-12T03:08:31.783Z,22.37
2019-03-12T03:10:58.478Z,18.50
2019-03-12T03:13:25.168Z,23.40
2019-03-12T03:15:51.965Z,24.23
2019-03-12T03:18:18.766Z,28.52
2019-03-12T03:20:45.478Z,25.43
2019-03-12T03:23:12.292Z,29.05
2019-03-12T03:25:39.177Z,18.98
2019-03-12T03:28:06.030Z,22.10
2019-03-12T03:30:32.844Z,33.33
2019-03-12T03:32:59.666Z,23.90
2019-03-12T03:35:26.423Z,24.52
2019-03-12T03:37:53.224Z,21.95
2019-03-12T03:40:20.401Z,30.02
2019-03-12T03:42:47.450Z,24.35
2019-03-12T03:45:14.441Z,32.23
2019-03-12T03:47:41.185Z,26.82
2019-03-12T03:50:08.228Z,37.88
2019-03-12T03:52:35.053Z,24.40
2019-03-12T03:55:01.895Z,26.25
2019-03-12T03:57:28.568Z,29.23
2019-03-12T03:59:55.360Z,25.88
2019-03-12T04:02:22.044Z,27.85
2019-03-12T04:04:48.857Z,31.68
2019-03-12T04:07:15.642Z,24.60
2019-03-12T04:09:42.448Z,21.27
2019-03-12T04:12:09.258Z,31.25
2019-03-12T04:14:36.073Z,37.23
2019-03-12T04:17:02.875Z,26.40
2019-03-12T04:19:30.268Z,27.22
2019-03-12T04:21:57.059Z,31.82
2019-03-12T04:24:23.772Z,35.52
2019-03-12T04:26:51.442Z,35.15
2019-03-12T04:29:18.219Z,40.48
2019-03-12T04:31:44.921Z,45.35
2019-03-12T04:34:20.403Z,37.30
2019-03-12T04:36:48.360Z,39.45
2019-03-12T04:39:15.162Z,42.03
2019-03-12T04:41:41.852Z,44.38
2019-03-12T04:44:08.540Z,44.75
2019-03-12T04:46:35.328Z,47.62
2019-03-12T04:49:02.321Z,44.00
2019-03-12T04:51:29.100Z,45.63
2019-03-12T04:53:55.894Z,61.70
2019-03-12T04:56:22.576Z,54.40
2019-03-12T04:58:49.286Z,45.15
2019-03-12T05:01:16.073Z,44.77
2019-03-12T05:03:42.845Z,42.48
2019-03-12T05:06:09.703Z,47.88
2019-03-12T05:08:36.408Z,49.90
2019-03-12T05:11:03.232Z,49.55
2019-03-12T05:13:30.023Z,38.73
2019-03-12T05:15:56.817Z,52.98
2019-03-12T05:18:23.604Z,44.63
2019-03-12T05:20:50.299Z,49.98
2019-03-12T05:23:16.882Z,61.98
2019-03-12T05:25:43.682Z,56.53
2019-03-12T05:28:10.362Z,48.05
2019-03-12T05:30:37.191Z,52.05
2019-03-12T05:33:03.934Z,54.95
2019-03-12T05:35:30.732Z,57.60
2019-03-12T05:37:57.551Z,55.75
2019-03-12T05:40:24.139Z,65.35
2019-03-12T05:42:50.914Z,59.93
2019-03-12T05:45:17.701Z,55.63
2019-03-12T05:47:44.495Z,54.35
2019-03-12T05:50:11.751Z,69.35
2019-03-12T05:52:38.524Z,58.20
2019-03-12T05:55:05.355Z,65.92
2019-03-12T05:57:32.117Z,71.55
2019-03-12T05:59:58.911Z,63.20
2019-03-12T06:02:25.584Z,63.17
2019-03-12T06:04:52.178Z,63.92
2019-03-12T06:07:18.853Z,40.03
2019-03-12T06:09:45.651Z,43.63
2019-03-12T06:12:12.438Z,28.17
2019-03-12T06:14:39.145Z,36.15
2019-03-12T06:17:05.910Z,35.85
2019-03-12T06:19:32.687Z,31.60
2019-03-12T06:21:59.384Z,33.15
2019-03-12T06:24:26.180Z,29.27
2019-03-12T06:26:52.961Z,29.18
2019-03-12T06:29:19.534Z,31.35
2019-03-12T06:31:53.052Z,19.70
2019-03-12T06:34:45.336Z,18.25
2019-03-12T06:37:31.821Z,16.48
2019-03-12T06:40:04.983Z,18.30
2019-03-12T06:42:49.839Z,19.27
2019-03-12T06:45:40.563Z,16.20
2019-03-12T06:48:25.512Z,21.25
2019-03-12T06:51:11.862Z,15.30
2019-03-12T06:53:56.570Z,21.15
2019-03-12T06:56:29.689Z,18.05
2019-03-12T06:59:10.170Z,21.02
2019-03-12T07:01:52.565Z,23.80
2019-03-12T07:04:56.918Z,17.00
2019-03-12T07:08:06.140Z,16.45
2019-03-12T07:10:59.717Z,17.98
2019-03-12T07:13:38.287Z,14.05
2019-03-12T07:16:27.656Z,16.23
2019-03-12T07:19:19.958Z,25.08
2019-03-12T07:22:09.236Z,11.65
2019-03-12T07:24:44.722Z,12.33
2019-03-12T07:27:35.102Z,14.45
2019-03-12T07:30:20.204Z,19.42
2019-03-12T07:32:59.093Z,13.53
2019-03-12T07:36:00.453Z,13.65
2019-03-12T07:38:32.746Z,10.30
2019-03-12T07:41:06.777Z,14.65
2019-03-12T07:43:51.417Z,15.93
2019-03-12T07:46:35.609Z,12.93
2019-03-12T07:49:40.097Z,15.10
2019-03-12T07:52:38.317Z,17.15
2019-03-12T07:55:29.913Z,17.60
2019-03-12T07:58:12.831Z,14.38
2019-03-12T08:00:52.329Z,13.53
2019-03-12T08:03:25.901Z,17.48
2019-03-12T08:06:08.849Z,9.65
2019-03-12T08:08:54.199Z,13.95
2019-03-12T08:11:36.393Z,12.00
2019-03-12T08:14:22.792Z,14.65
2019-03-12T08:17:14.974Z,12.47
2019-03-12T08:19:52.253Z,14.58
2019-03-12T08:22:44.564Z,12.88
2019-03-12T08:25:33.661Z,9.48
2019-03-12T08:28:25.878Z,15.93
2019-03-12T08:30:59.695Z,9.03
2019-03-12T08:33:35.507Z,14.23
2019-03-12T08:36:22.104Z,14.13
2019-03-12T08:38:59.947Z,11.80
2019-03-12T08:41:46.327Z,12.65
2019-03-12T08:44:31.281Z,9.73
2019-03-12T08:47:26.766Z,7.58
2019-03-12T08:50:17.734Z,13.30
2019-03-12T08:52:57.314Z,7.83
2019-03-12T08:55:49.601Z,13.98
2019-03-12T08:58:25.694Z,10.45
2019-03-12T09:01:15.035Z,16.70
2019-03-12T09:04:16.345Z,11.65
2019-03-12T09:07:11.637Z,19.07
2019-03-12T09:09:56.095Z,17.25
2019-03-12T09:12:45.373Z,16.73
2019-03-12T09:15:30.402Z,16.45
2019-03-12T09:18:18.971Z,17.73
2019-03-12T09:21:05.396Z,18.32
2019-03-12T09:23:46.542Z,19.30
2019-03-12T09:26:35.787Z,16.85
2019-03-12T09:29:12.173Z,15.23
2019-03-12T09:31:47.714Z,17.48
2019-03-12T09:34:32.444Z,17.98
2019-03-12T09:37:18.893Z,14.15
2019-03-12T09:40:05.500Z,16.23
2019-03-12T09:42:55.165Z,10.70
2019-03-12T09:45:59.822Z,13.70
2019-03-12T09:48:48.867Z,13.00
2019-03-12T09:51:23.006Z,15.53
2019-03-12T09:54:21.322Z,11.78
2019-03-12T09:57:07.837Z,11.00
2019-03-12T09:59:45.772Z,14.43
2019-03-12T10:02:26.438Z,12.75
2019-03-12T10:05:11.683Z,16.25
2019-03-12T10:07:58.122Z,19.42
2019-03-12T10:10:42.539Z,16.45
2019-03-12T10:13:16.379Z,13.38
2019-03-12T10:16:02.339Z,16.40
2019-03-12T10:18:49.909Z,13.75
2019-03-12T10:21:36.403Z,12.28
2019-03-12T10:24:21.735Z,10.15
2019-03-12T10:26:55.355Z,16.60
2019-03-12T10:29:30.544Z,19.57
2019-03-12T10:32:05.516Z,15.65
2019-03-12T10:34:45.586Z,14.75
2019-03-12T10:37:30.530Z,19.45
2019-03-12T10:40:14.600Z,13.95
2019-03-12T10:42:49.942Z,14.28
2019-03-12T10:45:23.591Z,14.58
2019-03-12T10:47:52.520Z,13.75
2019-03-12T10:50:20.039Z,19.23
2019-03-12T10:52:46.829Z,10.93
2019-03-12T10:55:14.134Z,10.43
2019-03-12T10:57:41.213Z,11.80
2019-03-12T11:00:08.698Z,13.25
2019-03-12T11:02:35.486Z,13.53
2019-03-12T11:05:03.082Z,11.97
2019-03-12T11:07:30.128Z,17.07
2019-03-12T11:09:56.927Z,9.60
2019-03-12T11:12:24.378Z,12.55
2019-03-12T11:14:52.080Z,10.63
2019-03-12T11:17:20.226Z,10.05
2019-03-12T11:19:47.845Z,9.35
2019-03-12T11:22:14.502Z,8.23
2019-03-12T11:24:41.307Z,9.78
2019-03-12T11:27:09.415Z,11.50
2019-03-12T11:29:36.109Z,11.95
2019-03-12T11:32:04.146Z,10.10
2019-03-12T11:34:34.624Z,9.85
2019-03-12T11:37:03.282Z,11.90
2019-03-12T11:39:33.659Z,11.95
2019-03-12T11:42:00.457Z,8.90
2019-03-12T11:44:28.233Z,10.30
2019-03-12T11:46:59.589Z,15.90
2019-03-12T11:49:28.159Z,11.45
2019-03-12T11:51:55.349Z,13.70
2019-03-12T11:54:22.392Z,8.28
2019-03-12T11:56:49.533Z,9.23
2019-03-12T11:59:17.033Z,10.93
2019-03-12T12:02:05.572Z,5.30
2019-03-12T12:04:39.536Z,12.58
2019-03-12T12:07:08.116Z,14.03
2019-03-12T12:09:55.243Z,19.65
2019-03-12T12:12:22.205Z,11.93
2019-03-12T12:14:49.864Z,11.83
2019-03-12T12:17:16.943Z,13.03
2019-03-12T12:19:43.622Z,9.28
2019-03-12T12:22:10.478Z,12.98
2019-03-12T12:24:37.159Z,8.30
2019-03-12T12:27:07.228Z,9.20
2019-03-12T12:29:34.050Z,7.15
2019-03-12T12:32:00.909Z,13.03
2019-03-12T12:34:27.586Z,9.60
2019-03-12T12:36:54.272Z,16.23
2019-03-12T12:39:20.863Z,11.65
2019-03-12T12:41:47.567Z,10.50
2019-03-12T12:44:14.360Z,18.65
2019-03-12T12:46:41.184Z,12.50
2019-03-12T12:49:09.858Z,13.98
2019-03-12T12:51:37.753Z,10.10
2019-03-12T12:54:04.525Z,13.43
2019-03-12T12:56:31.203Z,9.75
2019-03-12T12:58:57.971Z,8.33
2019-03-12T13:01:24.775Z,7.78
2019-03-12T13:03:51.443Z,9.53
2019-03-12T13:06:18.233Z,11.33
2019-03-12T13:08:44.996Z,6.75
2019-03-12T13:11:11.778Z,10.90
2019-03-12T13:13:38.451Z,10.38
2019-03-12T13:16:05.138Z,7.80
2019-03-12T13:18:31.806Z,7.37
2019-03-12T13:20:58.791Z,9.85
2019-03-12T13:23:45.195Z,11.90
2019-03-12T13:26:11.976Z,11.28
2019-03-12T13:28:38.769Z,13.58
2019-03-12T13:31:05.527Z,11.03
2019-03-12T13:33:32.289Z,6.10
2019-03-12T13:35:59.065Z,7.15
2019-03-12T13:38:25.726Z,6.30
2019-03-12T13:40:52.577Z,10.53
2019-03-12T13:43:19.235Z,9.10
2019-03-12T13:45:46.036Z,4.87
2019-03-12T13:48:12.829Z,9.15
2019-03-12T13:50:39.601Z,10.68
2019-03-12T13:53:06.461Z,7.28
2019-03-12T13:55:33.585Z,9.53
2019-03-12T13:58:00.420Z,9.78
2019-03-12T14:00:27.310Z,11.57
2019-03-12T14:02:54.181Z,10.43
2019-03-12T14:05:20.968Z,8.78
2019-03-12T14:07:47.732Z,12.58
2019-03-12T14:10:18.943Z,10.28
2019-03-12T14:12:45.698Z,6.97
2019-03-12T14:15:16.019Z,5.97
2019-03-12T14:17:42.798Z,7.03
2019-03-12T14:20:38.160Z,6.83
2019-03-12T14:23:05.360Z,11.10
2019-03-12T14:25:32.169Z,5.35
2019-03-12T14:27:58.924Z,2.02
2019-03-12T14:30:25.707Z,5.50
2019-03-12T14:32:52.372Z,5.70
2019-03-12T14:35:19.143Z,4.72
2019-03-12T14:37:46.957Z,10.23
2019-03-12T14:40:13.753Z,9.28
2019-03-12T14:42:40.433Z,6.60
2019-03-12T14:45:10.509Z,7.37
2019-03-12T14:47:37.316Z,9.48
2019-03-12T14:50:05.174Z,8.03
2019-03-12T14:52:35.948Z,8.70
2019-03-12T14:55:02.979Z,6.08
2019-03-12T14:57:29.667Z,11.50
2019-03-12T14:59:56.342Z,5.95
2019-03-12T15:02:23.142Z,8.33
2019-03-12T15:04:49.938Z,7.53
2019-03-12T15:07:16.711Z,8.40
2019-03-12T15:09:43.395Z,5.22
2019-03-12T15:12:11.714Z,8.05
2019-03-12T15:14:38.651Z,6.87
2019-03-12T15:17:05.477Z,7.10
2019-03-12T15:19:32.144Z,6.95
2019-03-12T15:21:58.955Z,4.65
2019-03-12T15:24:25.780Z,10.35
2019-03-12T15:26:52.617Z,3.85
2019-03-12T15:29:19.418Z,7.83
2019-03-12T15:31:46.239Z,7.42
2019-03-12T15:34:12.897Z,6.15
2019-03-12T15:36:39.761Z,14.20
2019-03-12T15:39:07.485Z,7.10
2019-03-12T15:41:34.303Z,8.28
2019-03-12T15:44:02.896Z,4.83
2019-03-12T15:46:29.597Z,8.10
2019-03-12T15:48:56.359Z,5.08
2019-03-12T15:51:23.062Z,11.68
2019-03-12T15:53:49.838Z,10.80
2019-03-12T15:56:16.498Z,5.85
2019-03-12T15:58:43.291Z,4.83
2019-03-12T16:01:10.066Z,5.87
2019-03-12T16:03:36.857Z,8.10
2019-03-12T16:06:03.630Z,5.92
2019-03-12T16:08:30.324Z,9.30
2019-03-12T16:10:58.492Z,7.72
2019-03-12T16:13:25.512Z,9.68
2019-03-12T16:15:52.271Z,9.10
2019-03-12T16:18:19.062Z,8.55
2019-03-12T16:20:45.816Z,7.58
2019-03-12T16:23:12.687Z,8.33
2019-03-12T16:25:39.447Z,7.95
2019-03-12T16:28:06.260Z,9.13
2019-03-12T16:30:33.022Z,7.60
2019-03-12T16:32:59.717Z,10.18
2019-03-12T16:35:26.387Z,7.62
2019-03-12T16:37:53.121Z,11.90
2019-03-12T16:40:19.885Z,9.38
2019-03-12T16:42:46.629Z,11.50
2019-03-12T16:45:13.402Z,13.53
2019-03-12T16:47:40.181Z,12.68
2019-03-12T16:50:07.231Z,9.58
2019-03-12T16:52:33.914Z,11.40
2019-03-12T16:55:00.697Z,8.80
2019-03-12T16:57:27.399Z,9.43
2019-03-12T16:59:54.072Z,5.55
2019-03-12T17:02:20.770Z,9.88
2019-03-12T17:04:47.552Z,10.68
2019-03-12T17:07:14.134Z,9.40
2019-03-12T17:09:40.969Z,11.22
2019-03-12T17:12:07.788Z,10.53
2019-03-12T17:14:38.994Z,8.00
2019-03-12T17:17:03.268Z,7.42
2019-03-12T17:19:29.959Z,9.45
2019-03-12T17:21:56.717Z,10.43
2019-03-12T17:24:23.515Z,8.15
2019-03-12T17:26:50.202Z,10.88
2019-03-12T17:29:17.058Z,10.45
2019-03-12T17:31:43.628Z,5.85
2019-03-12T17:34:10.389Z,10.43
2019-03-12T17:36:37.067Z,7.15
2019-03-12T17:39:06.215Z,10.93
2019-03-12T17:41:33.006Z,7.35
2019-03-12T17:43:59.704Z,11.50
2019-03-12T17:46:26.398Z,7.90
2019-03-12T17:48:53.182Z,7.05
2019-03-12T17:51:19.857Z,12.10
2019-03-12T17:53:46.447Z,8.05
2019-03-12T17:56:13.123Z,9.13
2019-03-12T17:58:39.815Z,8.53
2019-03-12T18:01:06.604Z,8.28
2019-03-12T18:03:33.303Z,5.97
2019-03-12T18:05:59.981Z,9.15
2019-03-12T18:08:26.761Z,11.00
2019-03-12T18:10:53.535Z,4.75
2019-03-12T18:13:20.327Z,7.75
2019-03-12T18:15:47.267Z,8.90
2019-03-12T18:18:13.974Z,7.90
2019-03-12T18:20:43.780Z,8.63
2019-03-12T18:23:09.358Z,9.15
2019-03-12T18:25:36.184Z,7.65
2019-03-12T18:28:02.979Z,10.08
2019-03-12T18:30:29.798Z,6.97
2019-03-12T18:32:56.562Z,7.17
2019-03-12T18:35:23.370Z,6.62
2019-03-12T18:37:50.227Z,6.70
2019-03-12T18:40:17.572Z,7.62
2019-03-12T18:42:44.350Z,3.83
2019-03-12T18:45:13.705Z,14.60
2019-03-12T18:47:40.468Z,10.18
2019-03-12T18:50:08.104Z,7.20
2019-03-12T18:52:34.776Z,7.12
2019-03-12T18:55:01.559Z,9.40
2019-03-12T18:57:28.267Z,9.43
2019-03-12T18:59:54.956Z,4.42
2019-03-12T19:02:21.618Z,11.20
2019-03-12T19:04:48.404Z,5.72
2019-03-12T19:07:18.281Z,7.33
2019-03-12T19:09:43.752Z,9.20
2019-03-12T19:12:10.529Z,4.40
2019-03-12T19:14:37.323Z,4.47
2019-03-12T19:17:04.610Z,4.55
2019-03-12T19:19:31.395Z,6.10
2019-03-12T19:21:58.194Z,9.53
2019-03-12T19:24:24.995Z,7.92
2019-03-12T19:26:51.799Z,9.43
2019-03-12T19:29:18.638Z,5.28
2019-03-12T19:31:50.936Z,5.08
2019-03-12T19:34:24.526Z,7.95
2019-03-12T19:36:51.185Z,7.05
2019-03-12T19:39:18.115Z,6.55
2019-03-12T19:41:44.789Z,8.10
2019-03-12T19:44:11.560Z,8.58
2019-03-12T19:46:38.255Z,9.35
2019-03-12T19:49:05.016Z,5.40
2019-03-12T19:51:31.798Z,14.83
2019-03-12T19:53:58.556Z,4.87
2019-03-12T19:56:25.365Z,4.83
2019-03-12T19:58:52.128Z,10.60
2019-03-12T20:01:20.237Z,7.28
2019-03-12T20:03:47.163Z,4.37
2019-03-12T20:06:13.919Z,5.35
2019-03-12T20:08:40.677Z,5.40
2019-03-12T20:11:44.029Z,5.50
2019-03-12T20:14:51.011Z,3.65
2019-03-12T20:17:54.249Z,6.47
2019-03-12T20:21:14.099Z,3.47
2019-03-12T20:24:09.093Z,5.65
2019-03-12T20:27:05.131Z,4.83
2019-03-12T20:30:35.003Z,6.78
2019-03-12T20:33:40.681Z,5.50
2019-03-12T20:36:50.785Z,4.90
2019-03-12T20:39:53.987Z,3.52
2019-03-12T20:42:58.591Z,5.25
2019-03-12T20:46:10.709Z,4.03
2019-03-12T20:49:11.686Z,4.42
2019-03-12T20:52:28.388Z,4.35
2019-03-12T20:55:32.681Z,3.95
2019-03-12T20:58:56.772Z,5.28
2019-03-12T21:02:14.216Z,6.17
2019-03-12T21:05:24.863Z,4.03
2019-03-12T21:08:29.378Z,3.20
2019-03-12T21:11:42.069Z,5.55
2019-03-12T21:14:50.327Z,2.83
2019-03-12T21:17:57.177Z,2.10
2019-03-12T21:21:10.674Z,2.92
2019-03-12T21:23:50.780Z,6.30
2019-03-12T21:27:02.771Z,3.85
2019-03-12T21:29:40.837Z,7.03
2019-03-12T21:32:07.623Z,3.20
2019-03-12T21:34:34.319Z,4.20
2019-03-12T21:37:00.902Z,4.30
2019-03-12T21:39:27.705Z,6.58
2019-03-12T21:41:54.539Z,5.08
2019-03-12T21:44:21.252Z,4.33
2019-03-12T21:46:48.077Z,6.47
2019-03-12T21:49:14.880Z,5.42
2019-03-12T21:51:41.661Z,2.62
2019-03-12T21:54:08.233Z,2.27
2019-03-12T21:56:34.920Z,6.30
2019-03-12T21:59:01.651Z,4.25
2019-03-12T22:01:28.247Z,5.28
2019-03-12T22:03:55.050Z,3.52
2019-03-12T22:06:21.897Z,2.25
2019-03-12T22:08:48.731Z,3.30
2019-03-12T22:11:15.409Z,6.85
2019-03-12T22:13:42.009Z,2.08
2019-03-12T22:16:08.710Z,3.52
2019-03-12T22:18:35.502Z,2.77
2019-03-12T22:21:02.181Z,5.42
2019-03-12T22:23:36.114Z,3.90
2019-03-12T22:26:02.901Z,4.90
2019-03-12T22:28:29.677Z,5.83
2019-03-12T22:30:56.350Z,6.37
2019-03-12T22:33:23.021Z,5.00
2019-03-12T22:35:49.776Z,4.25
2019-03-12T22:38:16.460Z,1.75
2019-03-12T22:40:43.233Z,3.98
2019-03-12T22:43:10.012Z,4.20
2019-03-12T22:45:36.780Z,3.25
2019-03-12T22:48:03.566Z,2.85
2019-03-12T22:50:30.240Z,3.67
2019-03-12T22:52:56.940Z,5.78
2019-03-12T22:55:23.705Z,5.08
2019-03-12T22:57:50.395Z,3.72
2019-03-12T23:00:17.177Z,5.78
2019-03-12T23:02:43.978Z,5.85
2019-03-12T23:05:11.248Z,6.10
2019-03-12T23:07:37.983Z,5.03
2019-03-12T23:10:04.871Z,3.05
2019-03-12T23:12:31.566Z,5.95
2019-03-12T23:14:58.434Z,3.83
2019-03-12T23:17:25.174Z,2.65
2019-03-12T23:19:51.959Z,5.03
2019-03-12T23:22:18.639Z,4.15
2019-03-12T23:24:45.414Z,2.42
2019-03-12T23:27:12.211Z,4.25
2019-03-12T23:29:38.781Z,1.45
2019-03-12T23:32:05.486Z,0.70
2019-03-12T23:34:32.276Z,0.90
2019-03-12T23:36:59.155Z,1.45
2019-03-12T23:39:25.953Z,0.60
2019-03-12T23:41:52.768Z,0.40
2019-03-12T23:44:19.439Z,1.37
2019-03-12T23:46:46.456Z,1.10
2019-03-12T23:49:13.232Z,1.02
2019-03-12T23:51:40.029Z,2.42
2019-03-12T23:54:07.125Z,1.35
2019-03-12T23:56:33.902Z,1.52
2019-03-12T23:59:00.700Z,1.87
